sensor_id;sensor_type;location;lat;lon;timestamp;temperature;humidity
15700;DHT22;7950;42.744;23.174;2023-01-08T00:02:10;0.40;99.90
15700;DHT22;7950;42.744;23.174;2023-01-08T00:04:38;0.40;99.90
15700;DHT22;7950;42.744;23.174;2023-01-08T00:07:08;0.40;99.90
15700;DHT22;7950;42.744;23.174;2023-01-08T00:09:36;0.30;99.90
15700;DHT22;7950;42.744;23.174;2023-01-08T00:12:05;0.20;99.90
15700;DHT22;7950;42.744;23.174;2023-01-08T00:14:33;0.30;99.90
15700;DHT22;7950;42.744;23.174;2023-01-08T00:17:02;0.30;99.90
15700;DHT22;7950;42.744;23.174;2023-01-08T00:19:30;0.20;99.90
15700;DHT22;7950;42.744;23.174;2023-01-08T00:21:58;0.10;99.90
15700;DHT22;7950;42.744;23.174;2023-01-08T00:24:28;0.20;99.90
15700;DHT22;7950;42.744;23.174;2023-01-08T00:26:56;0.10;99.90
15700;DHT22;7950;42.744;23.174;2023-01-08T00:29:54;0.00;99.90
15700;DHT22;7950;42.744;23.174;2023-01-08T00:32:34;0.00;99.90
15700;DHT22;7950;42.744;23.174;2023-01-08T00:35:03;0.10;99.90
15700;DHT22;7950;42.744;23.174;2023-01-08T00:37:32;0.00;99.90
15700;DHT22;7950;42.744;23.174;2023-01-08T00:40:01;-0.10;99.90
15700;DHT22;7950;42.744;23.174;2023-01-08T00:42:30;-0.10;99.90
15700;DHT22;7950;42.744;23.174;2023-01-08T00:44:58;-0.20;99.90
15700;DHT22;7950;42.744;23.174;2023-01-08T00:47:26;-0.10;99.90
15700;DHT22;7950;42.744;23.174;2023-01-08T00:49:55;-0.20;99.90
15700;DHT22;7950;42.744;23.174;2023-01-08T00:52:23;-0.20;99.90
15700;DHT22;7950;42.744;23.174;2023-01-08T00:54:51;-0.20;99.90
15700;DHT22;7950;42.744;23.174;2023-01-08T00:57:21;-0.20;99.90
15700;DHT22;7950;42.744;23.174;2023-01-08T00:59:49;-0.30;99.90
15700;DHT22;7950;42.744;23.174;2023-01-08T01:02:18;-0.20;99.90
15700;DHT22;7950;42.744;23.174;2023-01-08T01:04:46;-0.30;99.90
15700;DHT22;7950;42.744;23.174;2023-01-08T01:07:14;-0.30;99.90
15700;DHT22;7950;42.744;23.174;2023-01-08T01:09:42;-0.30;99.90
15700;DHT22;7950;42.744;23.174;2023-01-08T01:12:11;-0.20;99.90
15700;DHT22;7950;42.744;23.174;2023-01-08T01:14:41;-0.20;99.90
15700;DHT22;7950;42.744;23.174;2023-01-08T01:17:09;-0.10;99.90
15700;DHT22;7950;42.744;23.174;2023-01-08T01:19:38;-0.10;99.90
15700;DHT22;7950;42.744;23.174;2023-01-08T01:22:06;-0.10;99.90
15700;DHT22;7950;42.744;23.174;2023-01-08T01:24:35;-0.10;99.90
15700;DHT22;7950;42.744;23.174;2023-01-08T01:27:03;-0.10;99.90
15700;DHT22;7950;42.744;23.174;2023-01-08T01:29:32;-0.20;99.90
15700;DHT22;7950;42.744;23.174;2023-01-08T01:32:01;-0.20;99.90
15700;DHT22;7950;42.744;23.174;2023-01-08T01:34:30;-0.20;99.90
15700;DHT22;7950;42.744;23.174;2023-01-08T01:36:58;-0.10;99.90
15700;DHT22;7950;42.744;23.174;2023-01-08T01:39:27;-0.10;99.90
15700;DHT22;7950;42.744;23.174;2023-01-08T01:41:55;-0.10;99.90
15700;DHT22;7950;42.744;23.174;2023-01-08T01:44:39;0.00;99.90
15700;DHT22;7950;42.744;23.174;2023-01-08T01:47:19;-0.10;99.90
15700;DHT22;7950;42.744;23.174;2023-01-08T01:50:03;-0.20;99.90
15700;DHT22;7950;42.744;23.174;2023-01-08T01:52:35;-0.20;99.90
15700;DHT22;7950;42.744;23.174;2023-01-08T01:55:07;-0.30;99.90
15700;DHT22;7950;42.744;23.174;2023-01-08T01:57:37;-0.30;99.90
15700;DHT22;7950;42.744;23.174;2023-01-08T02:00:07;-0.40;99.90
15700;DHT22;7950;42.744;23.174;2023-01-08T02:02:37;-0.40;99.90
15700;DHT22;7950;42.744;23.174;2023-01-08T02:05:06;-0.50;99.90
15700;DHT22;7950;42.744;23.174;2023-01-08T02:07:39;-0.50;99.90
15700;DHT22;7950;42.744;23.174;2023-01-08T02:10:13;-0.60;99.90
15700;DHT22;7950;42.744;23.174;2023-01-08T02:12:47;-0.50;99.90
15700;DHT22;7950;42.744;23.174;2023-01-08T02:15:22;-0.50;99.90
15700;DHT22;7950;42.744;23.174;2023-01-08T02:17:56;-0.50;99.90
15700;DHT22;7950;42.744;23.174;2023-01-08T02:21:04;-0.50;99.90
15700;DHT22;7950;42.744;23.174;2023-01-08T02:23:43;-0.40;99.90
15700;DHT22;7950;42.744;23.174;2023-01-08T02:26:25;-0.40;99.90
15700;DHT22;7950;42.744;23.174;2023-01-08T02:28:59;-0.40;99.90
15700;DHT22;7950;42.744;23.174;2023-01-08T02:31:29;-0.40;99.90
15700;DHT22;7950;42.744;23.174;2023-01-08T02:33:58;-0.50;99.90
15700;DHT22;7950;42.744;23.174;2023-01-08T02:36:33;-0.40;99.90
15700;DHT22;7950;42.744;23.174;2023-01-08T02:39:37;-0.40;99.90
15700;DHT22;7950;42.744;23.174;2023-01-08T02:42:11;-0.50;99.90
15700;DHT22;7950;42.744;23.174;2023-01-08T02:45:00;-0.60;99.90
15700;DHT22;7950;42.744;23.174;2023-01-08T02:47:33;-0.60;99.90
15700;DHT22;7950;42.744;23.174;2023-01-08T02:50:10;-0.50;99.90
15700;DHT22;7950;42.744;23.174;2023-01-08T02:52:47;-0.60;99.90
15700;DHT22;7950;42.744;23.174;2023-01-08T02:55:43;-0.60;99.90
15700;DHT22;7950;42.744;23.174;2023-01-08T02:58:14;-0.60;99.90
15700;DHT22;7950;42.744;23.174;2023-01-08T03:00:43;-0.60;99.90
15700;DHT22;7950;42.744;23.174;2023-01-08T03:03:16;-0.60;99.90
15700;DHT22;7950;42.744;23.174;2023-01-08T03:05:50;-0.70;99.90
15700;DHT22;7950;42.744;23.174;2023-01-08T03:08:19;-0.70;99.90
15700;DHT22;7950;42.744;23.174;2023-01-08T03:10:51;-0.70;99.90
15700;DHT22;7950;42.744;23.174;2023-01-08T03:13:25;-0.70;99.90
15700;DHT22;7950;42.744;23.174;2023-01-08T03:15:56;-0.70;99.90
15700;DHT22;7950;42.744;23.174;2023-01-08T03:18:30;-0.80;99.90
15700;DHT22;7950;42.744;23.174;2023-01-08T03:21:00;-0.80;99.90
15700;DHT22;7950;42.744;23.174;2023-01-08T03:23:31;-0.80;99.90
15700;DHT22;7950;42.744;23.174;2023-01-08T03:26:01;-0.80;99.90
15700;DHT22;7950;42.744;23.174;2023-01-08T03:28:34;-0.90;99.90
15700;DHT22;7950;42.744;23.174;2023-01-08T03:31:05;-0.80;99.90
15700;DHT22;7950;42.744;23.174;2023-01-08T03:33:35;-0.80;99.90
15700;DHT22;7950;42.744;23.174;2023-01-08T03:36:04;-0.80;99.90
15700;DHT22;7950;42.744;23.174;2023-01-08T03:38:38;-0.80;99.90
15700;DHT22;7950;42.744;23.174;2023-01-08T03:41:11;-0.80;99.90
15700;DHT22;7950;42.744;23.174;2023-01-08T03:43:41;-0.80;99.90
15700;DHT22;7950;42.744;23.174;2023-01-08T03:46:14;-0.80;99.90
15700;DHT22;7950;42.744;23.174;2023-01-08T03:49:10;-0.70;99.90
15700;DHT22;7950;42.744;23.174;2023-01-08T03:51:39;-0.80;99.90
15700;DHT22;7950;42.744;23.174;2023-01-08T03:54:10;-0.80;99.90
15700;DHT22;7950;42.744;23.174;2023-01-08T03:57:04;-0.90;99.90
15700;DHT22;7950;42.744;23.174;2023-01-08T03:59:34;-1.00;99.90
15700;DHT22;7950;42.744;23.174;2023-01-08T04:02:02;-0.90;99.90
15700;DHT22;7950;42.744;23.174;2023-01-08T04:04:43;-0.90;99.90
15700;DHT22;7950;42.744;23.174;2023-01-08T04:07:11;-0.80;99.90
15700;DHT22;7950;42.744;23.174;2023-01-08T04:09:40;-0.90;99.90
15700;DHT22;7950;42.744;23.174;2023-01-08T04:12:08;-0.90;99.90
15700;DHT22;7950;42.744;23.174;2023-01-08T04:14:38;-0.90;99.90
15700;DHT22;7950;42.744;23.174;2023-01-08T04:17:08;-0.80;99.90
15700;DHT22;7950;42.744;23.174;2023-01-08T04:19:36;-0.80;99.90
15700;DHT22;7950;42.744;23.174;2023-01-08T04:22:04;-0.90;99.90
15700;DHT22;7950;42.744;23.174;2023-01-08T04:24:33;-0.80;99.90
15700;DHT22;7950;42.744;23.174;2023-01-08T04:27:01;-0.90;99.90
15700;DHT22;7950;42.744;23.174;2023-01-08T04:29:29;-0.80;99.90
15700;DHT22;7950;42.744;23.174;2023-01-08T04:31:59;-0.90;99.90
15700;DHT22;7950;42.744;23.174;2023-01-08T04:34:27;-1.00;99.90
15700;DHT22;7950;42.744;23.174;2023-01-08T04:36:56;-1.00;99.90
15700;DHT22;7950;42.744;23.174;2023-01-08T04:39:24;-1.00;99.90
15700;DHT22;7950;42.744;23.174;2023-01-08T04:41:52;-1.00;99.90
15700;DHT22;7950;42.744;23.174;2023-01-08T04:44:20;-1.00;99.90
15700;DHT22;7950;42.744;23.174;2023-01-08T04:46:48;-0.90;99.90
15700;DHT22;7950;42.744;23.174;2023-01-08T04:49:18;-1.00;99.90
15700;DHT22;7950;42.744;23.174;2023-01-08T04:51:47;-1.00;99.90
15700;DHT22;7950;42.744;23.174;2023-01-08T04:54:15;-0.90;99.90
15700;DHT22;7950;42.744;23.174;2023-01-08T04:56:44;-1.00;99.90
15700;DHT22;7950;42.744;23.174;2023-01-08T04:59:12;-1.10;99.90
15700;DHT22;7950;42.744;23.174;2023-01-08T05:01:40;-1.10;99.90
15700;DHT22;7950;42.744;23.174;2023-01-08T05:04:09;-1.10;99.90
15700;DHT22;7950;42.744;23.174;2023-01-08T05:06:39;-1.20;99.90
15700;DHT22;7950;42.744;23.174;2023-01-08T05:09:08;-1.10;99.90
15700;DHT22;7950;42.744;23.174;2023-01-08T05:11:37;-1.10;99.90
15700;DHT22;7950;42.744;23.174;2023-01-08T05:14:06;-1.20;99.90
15700;DHT22;7950;42.744;23.174;2023-01-08T05:16:34;-1.10;99.90
15700;DHT22;7950;42.744;23.174;2023-01-08T05:19:06;-1.20;99.90
15700;DHT22;7950;42.744;23.174;2023-01-08T05:21:37;-1.20;99.90
15700;DHT22;7950;42.744;23.174;2023-01-08T05:24:07;-1.20;99.90
15700;DHT22;7950;42.744;23.174;2023-01-08T05:27:00;-1.30;99.90
15700;DHT22;7950;42.744;23.174;2023-01-08T05:29:28;-1.40;99.90
15700;DHT22;7950;42.744;23.174;2023-01-08T05:31:57;-1.40;99.90
15700;DHT22;7950;42.744;23.174;2023-01-08T05:34:25;-1.40;99.90
15700;DHT22;7950;42.744;23.174;2023-01-08T05:36:53;-1.40;99.90
15700;DHT22;7950;42.744;23.174;2023-01-08T05:39:23;-1.40;99.90
15700;DHT22;7950;42.744;23.174;2023-01-08T05:41:51;-1.40;99.90
15700;DHT22;7950;42.744;23.174;2023-01-08T05:44:20;-1.30;99.90
15700;DHT22;7950;42.744;23.174;2023-01-08T05:46:48;-1.40;99.90
15700;DHT22;7950;42.744;23.174;2023-01-08T05:49:16;-1.40;99.90
15700;DHT22;7950;42.744;23.174;2023-01-08T05:51:50;-1.40;99.90
15700;DHT22;7950;42.744;23.174;2023-01-08T05:54:18;-1.40;99.90
15700;DHT22;7950;42.744;23.174;2023-01-08T05:56:48;-1.40;99.90
15700;DHT22;7950;42.744;23.174;2023-01-08T05:59:16;-1.40;99.90
15700;DHT22;7950;42.744;23.174;2023-01-08T06:01:45;-1.30;99.90
15700;DHT22;7950;42.744;23.174;2023-01-08T06:04:13;-1.30;99.90
15700;DHT22;7950;42.744;23.174;2023-01-08T06:06:41;-1.40;99.90
15700;DHT22;7950;42.744;23.174;2023-01-08T06:09:10;-1.40;99.90
15700;DHT22;7950;42.744;23.174;2023-01-08T06:11:38;-1.40;99.90
15700;DHT22;7950;42.744;23.174;2023-01-08T06:14:33;-1.40;99.90
15700;DHT22;7950;42.744;23.174;2023-01-08T06:17:01;-1.40;99.90
15700;DHT22;7950;42.744;23.174;2023-01-08T06:19:35;-1.50;99.90
15700;DHT22;7950;42.744;23.174;2023-01-08T06:22:05;-1.40;99.90
15700;DHT22;7950;42.744;23.174;2023-01-08T06:24:33;-1.20;99.90
15700;DHT22;7950;42.744;23.174;2023-01-08T06:27:01;-0.80;99.90
15700;DHT22;7950;42.744;23.174;2023-01-08T06:29:29;0.00;99.90
15700;DHT22;7950;42.744;23.174;2023-01-08T06:31:59;0.70;99.90
15700;DHT22;7950;42.744;23.174;2023-01-08T06:34:28;1.60;99.90
15700;DHT22;7950;42.744;23.174;2023-01-08T06:36:56;2.30;99.90
15700;DHT22;7950;42.744;23.174;2023-01-08T06:39:27;3.00;99.90
15700;DHT22;7950;42.744;23.174;2023-01-08T06:41:56;3.60;99.90
15700;DHT22;7950;42.744;23.174;2023-01-08T06:44:24;4.10;99.90
15700;DHT22;7950;42.744;23.174;2023-01-08T06:46:52;4.60;99.90
15700;DHT22;7950;42.744;23.174;2023-01-08T06:49:47;5.20;99.90
15700;DHT22;7950;42.744;23.174;2023-01-08T06:52:15;5.60;99.90
15700;DHT22;7950;42.744;23.174;2023-01-08T06:54:43;6.10;99.90
15700;DHT22;7950;42.744;23.174;2023-01-08T06:57:11;6.70;99.90
15700;DHT22;7950;42.744;23.174;2023-01-08T06:59:40;7.10;98.80
15700;DHT22;7950;42.744;23.174;2023-01-08T07:02:11;7.70;95.70
15700;DHT22;7950;42.744;23.174;2023-01-08T07:04:40;7.70;96.80
15700;DHT22;7950;42.744;23.174;2023-01-08T07:07:22;7.80;96.90
15700;DHT22;7950;42.744;23.174;2023-01-08T07:09:50;7.40;97.10
15700;DHT22;7950;42.744;23.174;2023-01-08T07:12:42;6.80;99.00
15700;DHT22;7950;42.744;23.174;2023-01-08T07:15:10;6.10;99.90
15700;DHT22;7950;42.744;23.174;2023-01-08T07:17:38;5.60;99.90
15700;DHT22;7950;42.744;23.174;2023-01-08T07:20:07;5.20;99.90
15700;DHT22;7950;42.744;23.174;2023-01-08T07:22:37;4.70;99.90
15700;DHT22;7950;42.744;23.174;2023-01-08T07:25:07;4.40;99.90
15700;DHT22;7950;42.744;23.174;2023-01-08T07:27:35;4.10;99.90
15700;DHT22;7950;42.744;23.174;2023-01-08T07:30:05;3.90;99.90
15700;DHT22;7950;42.744;23.174;2023-01-08T07:32:43;3.90;99.90
15700;DHT22;7950;42.744;23.174;2023-01-08T07:35:12;4.00;99.90
15700;DHT22;7950;42.744;23.174;2023-01-08T07:37:42;4.00;99.90
15700;DHT22;7950;42.744;23.174;2023-01-08T07:40:11;3.90;99.90
15700;DHT22;7950;42.744;23.174;2023-01-08T07:42:39;3.90;99.90
15700;DHT22;7950;42.744;23.174;2023-01-08T07:45:08;3.90;99.90
15700;DHT22;7950;42.744;23.174;2023-01-08T07:47:36;3.80;99.90
15700;DHT22;7950;42.744;23.174;2023-01-08T07:50:06;3.80;99.90
15700;DHT22;7950;42.744;23.174;2023-01-08T07:52:44;3.60;99.90
15700;DHT22;7950;42.744;23.174;2023-01-08T07:55:12;3.50;99.90
15700;DHT22;7950;42.744;23.174;2023-01-08T07:57:40;3.40;99.90
15700;DHT22;7950;42.744;23.174;2023-01-08T08:00:10;3.50;99.90
15700;DHT22;7950;42.744;23.174;2023-01-08T08:02:38;3.70;99.90
15700;DHT22;7950;42.744;23.174;2023-01-08T08:05:07;3.90;99.90
15700;DHT22;7950;42.744;23.174;2023-01-08T08:07:35;4.00;99.90
15700;DHT22;7950;42.744;23.174;2023-01-08T08:10:06;4.40;99.90
15700;DHT22;7950;42.744;23.174;2023-01-08T08:12:34;4.60;99.90
15700;DHT22;7950;42.744;23.174;2023-01-08T08:15:03;5.20;99.90
15700;DHT22;7950;42.744;23.174;2023-01-08T08:17:31;5.70;99.90
15700;DHT22;7950;42.744;23.174;2023-01-08T08:19:59;5.80;99.90
15700;DHT22;7950;42.744;23.174;2023-01-08T08:25:49;6.00;99.90
15700;DHT22;7950;42.744;23.174;2023-01-08T08:28:18;6.40;99.90
15700;DHT22;7950;42.744;23.174;2023-01-08T08:30:46;6.60;99.90
15700;DHT22;7950;42.744;23.174;2023-01-08T08:33:14;7.70;99.90
15700;DHT22;7950;42.744;23.174;2023-01-08T08:35:47;8.70;99.90
15700;DHT22;7950;42.744;23.174;2023-01-08T08:38:16;9.90;99.90
15700;DHT22;7950;42.744;23.174;2023-01-08T08:40:44;11.00;99.90
15700;DHT22;7950;42.744;23.174;2023-01-08T08:43:14;12.10;99.90
15700;DHT22;7950;42.744;23.174;2023-01-08T08:45:42;13.30;94.80
15700;DHT22;7950;42.744;23.174;2023-01-08T08:48:11;14.40;90.00
15700;DHT22;7950;42.744;23.174;2023-01-08T08:50:39;15.20;80.80
15700;DHT22;7950;42.744;23.174;2023-01-08T08:56:31;16.70;71.40
15700;DHT22;7950;42.744;23.174;2023-01-08T08:59:00;17.30;67.20
15700;DHT22;7950;42.744;23.174;2023-01-08T09:01:29;17.80;64.20
15700;DHT22;7950;42.744;23.174;2023-01-08T09:03:57;18.30;62.80
15700;DHT22;7950;42.744;23.174;2023-01-08T09:06:25;18.60;62.10
15700;DHT22;7950;42.744;23.174;2023-01-08T09:08:54;18.70;61.10
15700;DHT22;7950;42.744;23.174;2023-01-08T09:11:22;18.60;59.80
15700;DHT22;7950;42.744;23.174;2023-01-08T09:13:50;17.70;61.80
15700;DHT22;7950;42.744;23.174;2023-01-08T09:16:20;16.30;64.00
15700;DHT22;7950;42.744;23.174;2023-01-08T09:18:48;15.20;66.40
15700;DHT22;7950;42.744;23.174;2023-01-08T09:21:16;14.20;70.40
15700;DHT22;7950;42.744;23.174;2023-01-08T09:23:47;13.40;73.90
15700;DHT22;7950;42.744;23.174;2023-01-08T09:26:15;12.90;76.80
15700;DHT22;7950;42.744;23.174;2023-01-08T09:28:43;12.50;81.40
15700;DHT22;7950;42.744;23.174;2023-01-08T09:31:12;12.20;85.70
15700;DHT22;7950;42.744;23.174;2023-01-08T09:33:41;11.90;88.00
15700;DHT22;7950;42.744;23.174;2023-01-08T09:36:10;11.90;91.10
15700;DHT22;7950;42.744;23.174;2023-01-08T09:38:38;12.00;91.50
15700;DHT22;7950;42.744;23.174;2023-01-08T09:41:10;12.00;91.90
15700;DHT22;7950;42.744;23.174;2023-01-08T09:43:44;12.00;93.40
15700;DHT22;7950;42.744;23.174;2023-01-08T09:46:14;12.00;91.60
15700;DHT22;7950;42.744;23.174;2023-01-08T09:48:47;11.80;92.70
15700;DHT22;7950;42.744;23.174;2023-01-08T09:51:18;11.80;91.70
15700;DHT22;7950;42.744;23.174;2023-01-08T09:53:52;11.90;93.00
15700;DHT22;7950;42.744;23.174;2023-01-08T09:56:48;12.00;92.10
15700;DHT22;7950;42.744;23.174;2023-01-08T09:59:17;12.10;92.80
15700;DHT22;7950;42.744;23.174;2023-01-08T10:01:46;12.00;93.00
15700;DHT22;7950;42.744;23.174;2023-01-08T10:04:18;11.90;93.20
15700;DHT22;7950;42.744;23.174;2023-01-08T10:06:50;11.90;94.00
15700;DHT22;7950;42.744;23.174;2023-01-08T10:09:25;12.10;93.30
15700;DHT22;7950;42.744;23.174;2023-01-08T10:11:56;12.20;92.50
15700;DHT22;7950;42.744;23.174;2023-01-08T10:14:29;12.40;91.90
15700;DHT22;7950;42.744;23.174;2023-01-08T10:17:01;12.40;90.70
15700;DHT22;7950;42.744;23.174;2023-01-08T10:19:32;12.40;91.00
15700;DHT22;7950;42.744;23.174;2023-01-08T10:22:01;12.40;91.30
15700;DHT22;7950;42.744;23.174;2023-01-08T10:24:34;12.30;90.90
15700;DHT22;7950;42.744;23.174;2023-01-08T10:27:06;12.10;90.10
15700;DHT22;7950;42.744;23.174;2023-01-08T10:29:36;11.80;91.70
15700;DHT22;7950;42.744;23.174;2023-01-08T10:32:08;11.60;93.10
15700;DHT22;7950;42.744;23.174;2023-01-08T10:35:04;11.30;94.60
15700;DHT22;7950;42.744;23.174;2023-01-08T10:37:37;11.20;96.20
15700;DHT22;7950;42.744;23.174;2023-01-08T10:40:19;11.10;97.20
15700;DHT22;7950;42.744;23.174;2023-01-08T10:42:50;11.10;97.50
15700;DHT22;7950;42.744;23.174;2023-01-08T10:45:20;11.20;96.90
15700;DHT22;7950;42.744;23.174;2023-01-08T10:47:53;11.10;96.30
15700;DHT22;7950;42.744;23.174;2023-01-08T10:50:26;11.00;95.60
15700;DHT22;7950;42.744;23.174;2023-01-08T10:52:56;10.80;96.40
15700;DHT22;7950;42.744;23.174;2023-01-08T10:55:27;10.80;97.50
15700;DHT22;7950;42.744;23.174;2023-01-08T10:57:57;10.90;99.90
15700;DHT22;7950;42.744;23.174;2023-01-08T11:00:28;11.10;99.90
15700;DHT22;7950;42.744;23.174;2023-01-08T11:02:59;11.30;98.90
15700;DHT22;7950;42.744;23.174;2023-01-08T11:05:30;11.40;98.60
15700;DHT22;7950;42.744;23.174;2023-01-08T11:08:00;11.50;96.70
15700;DHT22;7950;42.744;23.174;2023-01-08T11:10:33;11.60;96.90
15700;DHT22;7950;42.744;23.174;2023-01-08T11:13:04;11.60;95.30
15700;DHT22;7950;42.744;23.174;2023-01-08T11:15:36;11.40;95.50
15700;DHT22;7950;42.744;23.174;2023-01-08T11:18:20;11.20;97.70
15700;DHT22;7950;42.744;23.174;2023-01-08T11:21:19;11.30;97.40
15700;DHT22;7950;42.744;23.174;2023-01-08T11:24:00;11.10;96.70
15700;DHT22;7950;42.744;23.174;2023-01-08T11:26:30;11.00;97.20
15700;DHT22;7950;42.744;23.174;2023-01-08T11:29:06;11.00;97.40
15700;DHT22;7950;42.744;23.174;2023-01-08T11:31:40;11.10;98.50
15700;DHT22;7950;42.744;23.174;2023-01-08T11:34:14;11.20;97.60
15700;DHT22;7950;42.744;23.174;2023-01-08T11:36:48;11.40;96.60
15700;DHT22;7950;42.744;23.174;2023-01-08T11:39:18;11.30;95.20
15700;DHT22;7950;42.744;23.174;2023-01-08T11:42:17;11.10;95.40
15700;DHT22;7950;42.744;23.174;2023-01-08T11:44:59;10.90;96.20
15700;DHT22;7950;42.744;23.174;2023-01-08T11:47:50;10.80;96.90
15700;DHT22;7950;42.744;23.174;2023-01-08T11:50:22;10.80;96.60
15700;DHT22;7950;42.744;23.174;2023-01-08T11:53:03;10.80;97.70
15700;DHT22;7950;42.744;23.174;2023-01-08T11:55:42;10.90;97.50
15700;DHT22;7950;42.744;23.174;2023-01-08T11:58:21;11.00;98.40
15700;DHT22;7950;42.744;23.174;2023-01-08T12:00:59;11.10;98.90
15700;DHT22;7950;42.744;23.174;2023-01-08T12:03:34;11.20;97.50
15700;DHT22;7950;42.744;23.174;2023-01-08T12:06:10;11.20;95.90
15700;DHT22;7950;42.744;23.174;2023-01-08T12:09:15;11.10;95.70
15700;DHT22;7950;42.744;23.174;2023-01-08T12:11:49;11.00;95.30
15700;DHT22;7950;42.744;23.174;2023-01-08T12:14:36;10.80;95.80
15700;DHT22;7950;42.744;23.174;2023-01-08T12:17:20;10.80;95.90
15700;DHT22;7950;42.744;23.174;2023-01-08T12:20:07;10.80;96.00
15700;DHT22;7950;42.744;23.174;2023-01-08T12:22:45;10.90;95.60
15700;DHT22;7950;42.744;23.174;2023-01-08T12:28:16;10.90;94.60
15700;DHT22;7950;42.744;23.174;2023-01-08T12:31:00;10.90;94.60
15700;DHT22;7950;42.744;23.174;2023-01-08T12:33:35;10.90;94.50
15700;DHT22;7950;42.744;23.174;2023-01-08T12:36:09;11.00;94.30
15700;DHT22;7950;42.744;23.174;2023-01-08T12:38:40;11.00;94.50
15700;DHT22;7950;42.744;23.174;2023-01-08T12:41:37;11.00;94.20
15700;DHT22;7950;42.744;23.174;2023-01-08T12:44:08;11.00;94.90
15700;DHT22;7950;42.744;23.174;2023-01-08T12:47:02;11.00;94.30
15700;DHT22;7950;42.744;23.174;2023-01-08T12:50:20;10.90;93.50
15700;DHT22;7950;42.744;23.174;2023-01-08T12:52:54;10.90;94.00
15700;DHT22;7950;42.744;23.174;2023-01-08T12:55:41;10.90;93.70
15700;DHT22;7950;42.744;23.174;2023-01-08T12:58:22;10.90;93.40
15700;DHT22;7950;42.744;23.174;2023-01-08T13:00:57;10.90;94.60
15700;DHT22;7950;42.744;23.174;2023-01-08T13:03:29;10.90;94.40
15700;DHT22;7950;42.744;23.174;2023-01-08T13:06:07;11.00;94.10
15700;DHT22;7950;42.744;23.174;2023-01-08T13:08:41;11.00;94.00
15700;DHT22;7950;42.744;23.174;2023-01-08T13:11:11;11.00;93.20
15700;DHT22;7950;42.744;23.174;2023-01-08T13:17:32;11.00;94.20
15700;DHT22;7950;42.744;23.174;2023-01-08T13:20:02;11.00;94.00
15700;DHT22;7950;42.744;23.174;2023-01-08T13:22:57;11.00;94.30
15700;DHT22;7950;42.744;23.174;2023-01-08T13:25:30;11.00;94.40
15700;DHT22;7950;42.744;23.174;2023-01-08T13:27:59;10.90;94.60
15700;DHT22;7950;42.744;23.174;2023-01-08T13:30:39;11.00;94.90
15700;DHT22;7950;42.744;23.174;2023-01-08T13:33:37;10.90;95.50
15700;DHT22;7950;42.744;23.174;2023-01-08T13:36:18;10.90;95.50
15700;DHT22;7950;42.744;23.174;2023-01-08T13:39:03;11.00;95.70
15700;DHT22;7950;42.744;23.174;2023-01-08T13:41:33;11.00;94.80
15700;DHT22;7950;42.744;23.174;2023-01-08T13:44:04;11.00;95.00
15700;DHT22;7950;42.744;23.174;2023-01-08T13:46:36;11.00;94.40
15700;DHT22;7950;42.744;23.174;2023-01-08T13:49:09;11.00;94.20
15700;DHT22;7950;42.744;23.174;2023-01-08T13:51:45;10.90;94.70
15700;DHT22;7950;42.744;23.174;2023-01-08T13:54:20;10.90;95.80
15700;DHT22;7950;42.744;23.174;2023-01-08T13:56:52;10.80;95.80
15700;DHT22;7950;42.744;23.174;2023-01-08T13:59:30;10.70;96.20
15700;DHT22;7950;42.744;23.174;2023-01-08T14:02:01;10.60;96.50
15700;DHT22;7950;42.744;23.174;2023-01-08T14:04:30;10.50;96.50
15700;DHT22;7950;42.744;23.174;2023-01-08T14:07:12;10.50;97.00
15700;DHT22;7950;42.744;23.174;2023-01-08T14:09:40;10.40;97.90
15700;DHT22;7950;42.744;23.174;2023-01-08T14:12:11;10.40;98.00
15700;DHT22;7950;42.744;23.174;2023-01-08T14:14:44;10.40;98.50
15700;DHT22;7950;42.744;23.174;2023-01-08T14:17:15;10.30;99.40
15700;DHT22;7950;42.744;23.174;2023-01-08T14:20:10;10.20;99.90
15700;DHT22;7950;42.744;23.174;2023-01-08T14:22:41;10.10;99.90
15700;DHT22;7950;42.744;23.174;2023-01-08T14:25:15;10.00;99.90
15700;DHT22;7950;42.744;23.174;2023-01-08T14:27:53;9.90;99.90
15700;DHT22;7950;42.744;23.174;2023-01-08T14:30:47;9.80;99.90
15700;DHT22;7950;42.744;23.174;2023-01-08T14:33:16;9.70;99.90
15700;DHT22;7950;42.744;23.174;2023-01-08T14:35:48;9.60;99.90
15700;DHT22;7950;42.744;23.174;2023-01-08T14:38:17;9.50;99.90
15700;DHT22;7950;42.744;23.174;2023-01-08T14:40:48;9.40;99.90
15700;DHT22;7950;42.744;23.174;2023-01-08T14:43:18;9.30;99.90
15700;DHT22;7950;42.744;23.174;2023-01-08T14:45:50;9.20;99.90
15700;DHT22;7950;42.744;23.174;2023-01-08T14:48:22;9.00;99.90
15700;DHT22;7950;42.744;23.174;2023-01-08T14:51:21;8.90;99.90
15700;DHT22;7950;42.744;23.174;2023-01-08T14:53:52;8.70;99.90
15700;DHT22;7950;42.744;23.174;2023-01-08T14:56:30;8.60;99.90
15700;DHT22;7950;42.744;23.174;2023-01-08T14:58:59;8.40;99.90
15700;DHT22;7950;42.744;23.174;2023-01-08T15:01:33;8.20;99.90
15700;DHT22;7950;42.744;23.174;2023-01-08T15:04:12;8.10;99.90
15700;DHT22;7950;42.744;23.174;2023-01-08T15:06:42;7.80;99.90
15700;DHT22;7950;42.744;23.174;2023-01-08T15:09:20;7.70;99.90
15700;DHT22;7950;42.744;23.174;2023-01-08T15:11:52;7.50;99.90
15700;DHT22;7950;42.744;23.174;2023-01-08T15:14:22;7.30;99.90
15700;DHT22;7950;42.744;23.174;2023-01-08T15:17:07;7.20;99.90
15700;DHT22;7950;42.744;23.174;2023-01-08T15:19:40;7.00;99.90
15700;DHT22;7950;42.744;23.174;2023-01-08T15:22:17;6.90;99.90
15700;DHT22;7950;42.744;23.174;2023-01-08T15:24:56;6.70;99.90
15700;DHT22;7950;42.744;23.174;2023-01-08T15:27:25;6.50;99.90
15700;DHT22;7950;42.744;23.174;2023-01-08T15:30:22;6.40;99.90
15700;DHT22;7950;42.744;23.174;2023-01-08T15:32:51;6.20;99.90
15700;DHT22;7950;42.744;23.174;2023-01-08T15:35:19;6.00;99.90
15700;DHT22;7950;42.744;23.174;2023-01-08T15:37:52;5.80;99.90
15700;DHT22;7950;42.744;23.174;2023-01-08T15:40:46;5.60;99.90
15700;DHT22;7950;42.744;23.174;2023-01-08T15:43:16;5.40;99.90
15700;DHT22;7950;42.744;23.174;2023-01-08T15:45:45;5.20;99.90
15700;DHT22;7950;42.744;23.174;2023-01-08T15:48:14;5.10;99.90
15700;DHT22;7950;42.744;23.174;2023-01-08T15:50:43;4.90;99.90
15700;DHT22;7950;42.744;23.174;2023-01-08T15:53:38;4.70;99.90
15700;DHT22;7950;42.744;23.174;2023-01-08T15:56:06;4.50;99.90
15700;DHT22;7950;42.744;23.174;2023-01-08T15:58:34;4.30;99.90
15700;DHT22;7950;42.744;23.174;2023-01-08T16:01:03;4.30;99.90
15700;DHT22;7950;42.744;23.174;2023-01-08T16:03:31;4.20;99.90
15700;DHT22;7950;42.744;23.174;2023-01-08T16:06:03;4.10;99.90
15700;DHT22;7950;42.744;23.174;2023-01-08T16:08:32;3.90;99.90
15700;DHT22;7950;42.744;23.174;2023-01-08T16:11:01;3.90;99.90
15700;DHT22;7950;42.744;23.174;2023-01-08T16:13:30;3.80;99.90
15700;DHT22;7950;42.744;23.174;2023-01-08T16:15:58;3.70;99.90
15700;DHT22;7950;42.744;23.174;2023-01-08T16:18:27;3.70;99.90
15700;DHT22;7950;42.744;23.174;2023-01-08T16:20:58;3.60;99.90
15700;DHT22;7950;42.744;23.174;2023-01-08T16:23:27;3.50;99.90
15700;DHT22;7950;42.744;23.174;2023-01-08T16:25:55;3.50;99.90